sensor_id;sensor_type;location;lat;lon;timestamp;pressure;altitude;pressure_sealevel;temperature;humidity
28588;BME280;15787;49.662;10.162;2023-06-22T00:01:18;99246.56;;;19.81;100.00
28588;BME280;15787;49.662;10.162;2023-06-22T00:03:54;99257.19;;;19.86;100.00
28588;BME280;15787;49.662;10.162;2023-06-22T00:06:27;99271.59;;;19.83;100.00
28588;BME280;15787;49.662;10.162;2023-06-22T00:09:00;99269.72;;;19.80;100.00
28588;BME280;15787;49.662;10.162;2023-06-22T00:11:33;99270.00;;;19.67;100.00
28588;BME280;15787;49.662;10.162;2023-06-22T00:14:06;99278.50;;;19.67;100.00
28588;BME280;15787;49.662;10.162;2023-06-22T00:16:40;99287.88;;;19.59;100.00
28588;BME280;15787;49.662;10.162;2023-06-22T00:19:16;99273.81;;;19.64;100.00
28588;BME280;15787;49.662;10.162;2023-06-22T00:21:52;99273.69;;;19.44;100.00
28588;BME280;15787;49.662;10.162;2023-06-22T00:24:25;99261.97;;;19.51;100.00
28588;BME280;15787;49.662;10.162;2023-06-22T00:26:58;99260.44;;;19.50;100.00
28588;BME280;15787;49.662;10.162;2023-06-22T00:29:31;99246.47;;;19.23;100.00
28588;BME280;15787;49.662;10.162;2023-06-22T00:32:05;99210.47;;;18.85;100.00
28588;BME280;15787;49.662;10.162;2023-06-22T00:34:39;99148.00;;;18.74;100.00
28588;BME280;15787;49.662;10.162;2023-06-22T00:37:12;99097.81;;;19.13;100.00
28588;BME280;15787;49.662;10.162;2023-06-22T00:39:45;99087.84;;;19.17;100.00
28588;BME280;15787;49.662;10.162;2023-06-22T00:42:18;99082.47;;;19.34;100.00
28588;BME280;15787;49.662;10.162;2023-06-22T00:44:51;99078.38;;;19.49;100.00
28588;BME280;15787;49.662;10.162;2023-06-22T00:47:24;99106.72;;;19.49;100.00
28588;BME280;15787;49.662;10.162;2023-06-22T00:49:58;99119.88;;;19.67;100.00
28588;BME280;15787;49.662;10.162;2023-06-22T00:52:32;99127.50;;;19.61;100.00
28588;BME280;15787;49.662;10.162;2023-06-22T00:55:07;99130.41;;;19.67;100.00
28588;BME280;15787;49.662;10.162;2023-06-22T00:57:40;99141.56;;;19.70;100.00
28588;BME280;15787;49.662;10.162;2023-06-22T01:00:14;99152.38;;;19.72;100.00
28588;BME280;15787;49.662;10.162;2023-06-22T01:02:50;99150.13;;;19.76;100.00
28588;BME280;15787;49.662;10.162;2023-06-22T01:05:25;99146.91;;;19.68;100.00
28588;BME280;15787;49.662;10.162;2023-06-22T01:08:12;99141.19;;;19.63;100.00
28588;BME280;15787;49.662;10.162;2023-06-22T01:10:50;99144.97;;;19.45;100.00
28588;BME280;15787;49.662;10.162;2023-06-22T01:13:28;99140.38;;;19.62;100.00
28588;BME280;15787;49.662;10.162;2023-06-22T01:16:06;99135.00;;;19.64;100.00
28588;BME280;15787;49.662;10.162;2023-06-22T01:18:42;99140.66;;;19.20;100.00
28588;BME280;15787;49.662;10.162;2023-06-22T01:21:19;99139.41;;;19.21;100.00
28588;BME280;15787;49.662;10.162;2023-06-22T01:24:04;99153.44;;;19.30;100.00
28588;BME280;15787;49.662;10.162;2023-06-22T01:26:44;99154.91;;;19.11;100.00
28588;BME280;15787;49.662;10.162;2023-06-22T01:29:24;99160.88;;;19.13;100.00
28588;BME280;15787;49.662;10.162;2023-06-22T01:32:00;99164.28;;;19.17;100.00
28588;BME280;15787;49.662;10.162;2023-06-22T01:34:40;99182.84;;;19.33;100.00
28588;BME280;15787;49.662;10.162;2023-06-22T01:37:14;99180.28;;;19.06;100.00
28588;BME280;15787;49.662;10.162;2023-06-22T01:39:48;99178.25;;;19.21;100.00
28588;BME280;15787;49.662;10.162;2023-06-22T01:42:23;99188.22;;;19.31;100.00
28588;BME280;15787;49.662;10.162;2023-06-22T01:44:59;99181.47;;;19.14;100.00
28588;BME280;15787;49.662;10.162;2023-06-22T01:47:34;99177.16;;;19.18;100.00
28588;BME280;15787;49.662;10.162;2023-06-22T01:50:08;99174.91;;;19.08;100.00
28588;BME280;15787;49.662;10.162;2023-06-22T01:52:42;99186.34;;;19.28;100.00
28588;BME280;15787;49.662;10.162;2023-06-22T01:55:15;99191.81;;;19.17;100.00
28588;BME280;15787;49.662;10.162;2023-06-22T01:57:48;99220.03;;;19.26;100.00
28588;BME280;15787;49.662;10.162;2023-06-22T02:00:23;99252.19;;;19.37;100.00
28588;BME280;15787;49.662;10.162;2023-06-22T02:03:05;99323.81;;;19.05;100.00
28588;BME280;15787;49.662;10.162;2023-06-22T02:05:47;99405.31;;;18.68;100.00
28588;BME280;15787;49.662;10.162;2023-06-22T02:08:23;99466.03;;;18.91;100.00
28588;BME280;15787;49.662;10.162;2023-06-22T02:10:57;99484.34;;;19.14;100.00
28588;BME280;15787;49.662;10.162;2023-06-22T02:13:32;99459.16;;;19.16;100.00
28588;BME280;15787;49.662;10.162;2023-06-22T02:16:08;99403.88;;;19.29;100.00
28588;BME280;15787;49.662;10.162;2023-06-22T02:18:46;99397.13;;;19.27;100.00
28588;BME280;15787;49.662;10.162;2023-06-22T02:21:23;99410.50;;;19.26;100.00
28588;BME280;15787;49.662;10.162;2023-06-22T02:23:56;99361.16;;;19.18;100.00
28588;BME280;15787;49.662;10.162;2023-06-22T02:26:29;99346.19;;;19.27;100.00
28588;BME280;15787;49.662;10.162;2023-06-22T02:29:06;99342.34;;;19.30;100.00
28588;BME280;15787;49.662;10.162;2023-06-22T02:31:40;99312.25;;;19.41;100.00
28588;BME280;15787;49.662;10.162;2023-06-22T02:34:13;99314.13;;;19.44;100.00
28588;BME280;15787;49.662;10.162;2023-06-22T02:36:50;99311.47;;;19.41;100.00
28588;BME280;15787;49.662;10.162;2023-06-22T02:39:24;99293.63;;;19.49;100.00
28588;BME280;15787;49.662;10.162;2023-06-22T02:41:57;99270.50;;;19.27;100.00
28588;BME280;15787;49.662;10.162;2023-06-22T02:44:30;99242.78;;;19.31;100.00
28588;BME280;15787;49.662;10.162;2023-06-22T02:47:05;99200.19;;;19.11;100.00
28588;BME280;15787;49.662;10.162;2023-06-22T02:49:38;99176.66;;;19.20;100.00
28588;BME280;15787;49.662;10.162;2023-06-22T02:52:11;99167.59;;;19.30;100.00
28588;BME280;15787;49.662;10.162;2023-06-22T02:54:44;99153.44;;;19.30;100.00
28588;BME280;15787;49.662;10.162;2023-06-22T02:57:18;99131.78;;;19.27;100.00
28588;BME280;15787;49.662;10.162;2023-06-22T02:59:51;99121.75;;;19.12;100.00
28588;BME280;15787;49.662;10.162;2023-06-22T03:02:25;99111.69;;;19.11;100.00
28588;BME280;15787;49.662;10.162;2023-06-22T03:04:59;99094.88;;;19.07;100.00
28588;BME280;15787;49.662;10.162;2023-06-22T03:07:33;99100.72;;;18.74;100.00
28588;BME280;15787;49.662;10.162;2023-06-22T03:10:07;99090.47;;;18.77;100.00
28588;BME280;15787;49.662;10.162;2023-06-22T03:12:41;99078.47;;;18.67;100.00
28588;BME280;15787;49.662;10.162;2023-06-22T03:15:15;99071.84;;;18.70;100.00
28588;BME280;15787;49.662;10.162;2023-06-22T03:17:50;99068.91;;;18.79;100.00
28588;BME280;15787;49.662;10.162;2023-06-22T03:20:23;99072.03;;;18.81;100.00
28588;BME280;15787;49.662;10.162;2023-06-22T03:22:59;99068.81;;;18.74;100.00
28588;BME280;15787;49.662;10.162;2023-06-22T03:25:32;99069.19;;;18.67;100.00
28588;BME280;15787;49.662;10.162;2023-06-22T03:28:05;99062.06;;;18.71;100.00
28588;BME280;15787;49.662;10.162;2023-06-22T03:30:38;99067.72;;;18.71;100.00
28588;BME280;15787;49.662;10.162;2023-06-22T03:33:13;99064.03;;;18.65;100.00
28588;BME280;15787;49.662;10.162;2023-06-22T03:35:45;99066.47;;;18.58;100.00
28588;BME280;15787;49.662;10.162;2023-06-22T03:38:18;99058.38;;;18.65;100.00
28588;BME280;15787;49.662;10.162;2023-06-22T03:40:51;99067.31;;;18.64;100.00
28588;BME280;15787;49.662;10.162;2023-06-22T03:43:25;99058.38;;;18.65;100.00
28588;BME280;15787;49.662;10.162;2023-06-22T03:45:58;99049.09;;;18.79;100.00
28588;BME280;15787;49.662;10.162;2023-06-22T03:48:32;99055.66;;;18.85;100.00
28588;BME280;15787;49.662;10.162;2023-06-22T03:51:05;99056.06;;;18.93;100.00
28588;BME280;15787;49.662;10.162;2023-06-22T03:53:38;99060.91;;;18.92;100.00
28588;BME280;15787;49.662;10.162;2023-06-22T03:56:11;99085.88;;;18.79;100.00
28588;BME280;15787;49.662;10.162;2023-06-22T03:58:44;99090.09;;;18.99;100.00
28588;BME280;15787;49.662;10.162;2023-06-22T04:01:18;99087.66;;;19.21;100.00
28588;BME280;15787;49.662;10.162;2023-06-22T04:03:52;99092.06;;;19.22;100.00
28588;BME280;15787;49.662;10.162;2023-06-22T04:06:25;99086.00;;;19.29;100.00
28588;BME280;15787;49.662;10.162;2023-06-22T04:08:58;99110.41;;;19.41;100.00
28588;BME280;15787;49.662;10.162;2023-06-22T04:11:31;99116.38;;;19.43;100.00
28588;BME280;15787;49.662;10.162;2023-06-22T04:14:04;99123.31;;;19.42;100.00
28588;BME280;15787;49.662;10.162;2023-06-22T04:16:38;99132.09;;;19.29;100.00
28588;BME280;15787;49.662;10.162;2023-06-22T04:19:12;99130.81;;;19.30;100.00
28588;BME280;15787;49.662;10.162;2023-06-22T04:21:48;99126.03;;;19.22;100.00
28588;BME280;15787;49.662;10.162;2023-06-22T04:24:21;99124.88;;;19.43;100.00
28588;BME280;15787;49.662;10.162;2023-06-22T04:26:54;99129.66;;;19.51;100.00
28588;BME280;15787;49.662;10.162;2023-06-22T04:29:27;99112.69;;;19.37;100.00
28588;BME280;15787;49.662;10.162;2023-06-22T04:32:02;99114.09;;;19.32;100.00
28588;BME280;15787;49.662;10.162;2023-06-22T04:34:38;99112.00;;;19.42;100.00
28588;BME280;15787;49.662;10.162;2023-06-22T04:37:11;99111.31;;;19.47;100.00
28588;BME280;15787;49.662;10.162;2023-06-22T04:39:47;99108.84;;;19.54;100.00
28588;BME280;15787;49.662;10.162;2023-06-22T04:42:20;99102.47;;;19.74;100.00
28588;BME280;15787;49.662;10.162;2023-06-22T04:44:53;99112.81;;;19.77;100.00
28588;BME280;15787;49.662;10.162;2023-06-22T04:47:26;99117.28;;;19.84;100.00
28588;BME280;15787;49.662;10.162;2023-06-22T04:50:00;99106.91;;;19.95;100.00
28588;BME280;15787;49.662;10.162;2023-06-22T04:52:37;99110.38;;;20.05;100.00
28588;BME280;15787;49.662;10.162;2023-06-22T04:55:10;99120.84;;;19.99;100.00
28588;BME280;15787;49.662;10.162;2023-06-22T04:57:46;99117.44;;;19.95;100.00
28588;BME280;15787;49.662;10.162;2023-06-22T05:00:20;99114.84;;;20.11;100.00
28588;BME280;15787;49.662;10.162;2023-06-22T05:02:54;99122.53;;;19.91;100.00
28588;BME280;15787;49.662;10.162;2023-06-22T05:05:50;99117.53;;;20.00;100.00
28588;BME280;15787;49.662;10.162;2023-06-22T05:08:24;99121.69;;;19.85;100.00
28588;BME280;15787;49.662;10.162;2023-06-22T05:10:58;99110.03;;;19.97;100.00
28588;BME280;15787;49.662;10.162;2023-06-22T05:13:36;99105.06;;;20.12;100.00
28588;BME280;15787;49.662;10.162;2023-06-22T05:16:09;99100.34;;;20.24;100.00
28588;BME280;15787;49.662;10.162;2023-06-22T05:18:42;99106.50;;;20.23;100.00
28588;BME280;15787;49.662;10.162;2023-06-22T05:21:17;99114.19;;;20.37;100.00
28588;BME280;15787;49.662;10.162;2023-06-22T05:23:50;99099.59;;;20.44;100.00
28588;BME280;15787;49.662;10.162;2023-06-22T05:26:24;99110.78;;;20.33;100.00
28588;BME280;15787;49.662;10.162;2023-06-22T05:28:57;99097.47;;;20.39;100.00
28588;BME280;15787;49.662;10.162;2023-06-22T05:31:30;99095.31;;;20.54;100.00
28588;BME280;15787;49.662;10.162;2023-06-22T05:34:03;99111.41;;;20.62;100.00
28588;BME280;15787;49.662;10.162;2023-06-22T05:36:37;99112.97;;;20.63;100.00
28588;BME280;15787;49.662;10.162;2023-06-22T05:39:11;99113.53;;;20.67;100.00
28588;BME280;15787;49.662;10.162;2023-06-22T05:41:45;99116.72;;;20.55;100.00
28588;BME280;15787;49.662;10.162;2023-06-22T05:44:19;99112.16;;;20.83;100.00
28588;BME280;15787;49.662;10.162;2023-06-22T05:46:52;99118.78;;;20.74;100.00
28588;BME280;15787;49.662;10.162;2023-06-22T05:49:25;99118.75;;;20.95;100.00
28588;BME280;15787;49.662;10.162;2023-06-22T05:52:03;99124.63;;;20.91;100.00
28588;BME280;15787;49.662;10.162;2023-06-22T05:54:36;99122.31;;;20.90;100.00
28588;BME280;15787;49.662;10.162;2023-06-22T05:57:10;99126.78;;;20.76;100.00
28588;BME280;15787;49.662;10.162;2023-06-22T05:59:43;99125.34;;;20.86;100.00
28588;BME280;15787;49.662;10.162;2023-06-22T06:02:16;99120.72;;;20.89;100.00
28588;BME280;15787;49.662;10.162;2023-06-22T06:04:49;99124.56;;;21.06;100.00
28588;BME280;15787;49.662;10.162;2023-06-22T06:07:24;99117.66;;;21.12;100.00
28588;BME280;15787;49.662;10.162;2023-06-22T06:09:57;99119.38;;;21.30;100.00
28588;BME280;15787;49.662;10.162;2023-06-22T06:12:30;99112.44;;;21.36;100.00
28588;BME280;15787;49.662;10.162;2023-06-22T06:15:04;99114.28;;;21.39;100.00
28588;BME280;15787;49.662;10.162;2023-06-22T06:17:47;99118.25;;;21.48;100.00
28588;BME280;15787;49.662;10.162;2023-06-22T06:20:21;99116.09;;;21.74;100.00
28588;BME280;15787;49.662;10.162;2023-06-22T06:22:56;99119.97;;;21.71;100.00
28588;BME280;15787;49.662;10.162;2023-06-22T06:25:29;99109.31;;;21.91;100.00
28588;BME280;15787;49.662;10.162;2023-06-22T06:28:02;99118.97;;;22.11;100.00
28588;BME280;15787;49.662;10.162;2023-06-22T06:30:36;99119.34;;;22.29;100.00
28588;BME280;15787;49.662;10.162;2023-06-22T06:33:09;99116.03;;;22.42;100.00
28588;BME280;15787;49.662;10.162;2023-06-22T06:35:42;99109.69;;;22.63;100.00
28588;BME280;15787;49.662;10.162;2023-06-22T06:38:16;99120.09;;;22.78;100.00
28588;BME280;15787;49.662;10.162;2023-06-22T06:40:49;99107.75;;;23.03;100.00
28588;BME280;15787;49.662;10.162;2023-06-22T06:43:22;99110.09;;;23.21;100.00
28588;BME280;15787;49.662;10.162;2023-06-22T06:45:56;99107.25;;;23.32;100.00
28588;BME280;15787;49.662;10.162;2023-06-22T06:48:29;99101.31;;;23.36;100.00
28588;BME280;15787;49.662;10.162;2023-06-22T06:51:03;99106.00;;;23.61;100.00
28588;BME280;15787;49.662;10.162;2023-06-22T06:53:37;99101.06;;;23.50;100.00
28588;BME280;15787;49.662;10.162;2023-06-22T06:56:10;99111.41;;;23.86;100.00
28588;BME280;15787;49.662;10.162;2023-06-22T06:58:43;99093.53;;;23.86;100.00
28588;BME280;15787;49.662;10.162;2023-06-22T07:01:17;99100.22;;;24.22;100.00
28588;BME280;15787;49.662;10.162;2023-06-22T07:03:53;99115.50;;;24.24;100.00
28588;BME280;15787;49.662;10.162;2023-06-22T07:06:26;99108.94;;;24.46;100.00
28588;BME280;15787;49.662;10.162;2023-06-22T07:09:05;99098.72;;;24.67;100.00
28588;BME280;15787;49.662;10.162;2023-06-22T07:11:38;99087.97;;;24.95;100.00
28588;BME280;15787;49.662;10.162;2023-06-22T07:14:11;99089.22;;;25.00;96.52
28588;BME280;15787;49.662;10.162;2023-06-22T07:16:43;99094.34;;;25.12;93.29
28588;BME280;15787;49.662;10.162;2023-06-22T07:19:24;99096.09;;;25.21;94.19
28588;BME280;15787;49.662;10.162;2023-06-22T07:21:57;99110.00;;;25.41;93.37
28588;BME280;15787;49.662;10.162;2023-06-22T07:24:31;99114.38;;;25.48;93.68
28588;BME280;15787;49.662;10.162;2023-06-22T07:27:05;99111.88;;;25.68;91.68
28588;BME280;15787;49.662;10.162;2023-06-22T07:29:42;99102.91;;;25.83;90.12
28588;BME280;15787;49.662;10.162;2023-06-22T07:32:15;99098.91;;;25.92;88.15
28588;BME280;15787;49.662;10.162;2023-06-22T07:34:48;99097.13;;;25.89;86.49
28588;BME280;15787;49.662;10.162;2023-06-22T07:37:21;99091.84;;;25.98;85.86
28588;BME280;15787;49.662;10.162;2023-06-22T07:39:56;99100.22;;;26.20;87.38
28588;BME280;15787;49.662;10.162;2023-06-22T07:42:30;99095.09;;;26.08;84.76
28588;BME280;15787;49.662;10.162;2023-06-22T07:45:05;99099.53;;;26.33;83.60
28588;BME280;15787;49.662;10.162;2023-06-22T07:47:40;99092.31;;;26.51;85.03
28588;BME280;15787;49.662;10.162;2023-06-22T07:50:13;99087.28;;;26.75;82.84
28588;BME280;15787;49.662;10.162;2023-06-22T07:52:46;99074.38;;;26.87;83.62
28588;BME280;15787;49.662;10.162;2023-06-22T07:55:20;99068.31;;;26.54;82.52
28588;BME280;15787;49.662;10.162;2023-06-22T07:57:53;99073.59;;;26.68;80.70
28588;BME280;15787;49.662;10.162;2023-06-22T08:00:26;99061.75;;;26.96;79.38
28588;BME280;15787;49.662;10.162;2023-06-22T08:02:59;99072.78;;;27.24;80.61
28588;BME280;15787;49.662;10.162;2023-06-22T08:05:35;99068.06;;;27.45;80.18
28588;BME280;15787;49.662;10.162;2023-06-22T08:08:08;99067.13;;;27.69;78.94
28588;BME280;15787;49.662;10.162;2023-06-22T08:10:42;99066.00;;;27.58;77.93
28588;BME280;15787;49.662;10.162;2023-06-22T08:13:15;99062.16;;;27.37;75.79
28588;BME280;15787;49.662;10.162;2023-06-22T08:15:48;99051.34;;;27.12;76.11
28588;BME280;15787;49.662;10.162;2023-06-22T08:18:21;99047.66;;;27.48;77.05
28588;BME280;15787;49.662;10.162;2023-06-22T08:20:54;99029.56;;;28.11;78.86
28588;BME280;15787;49.662;10.162;2023-06-22T08:23:27;99035.72;;;28.42;77.17
28588;BME280;15787;49.662;10.162;2023-06-22T08:26:01;99041.59;;;28.23;73.54
28588;BME280;15787;49.662;10.162;2023-06-22T08:28:34;99038.22;;;28.58;73.54
28588;BME280;15787;49.662;10.162;2023-06-22T08:31:07;99040.88;;;28.83;72.20
28588;BME280;15787;49.662;10.162;2023-06-22T08:33:40;99033.19;;;27.99;70.45
28588;BME280;15787;49.662;10.162;2023-06-22T08:36:20;99030.56;;;28.87;70.82
28588;BME280;15787;49.662;10.162;2023-06-22T08:38:53;99026.06;;;28.65;68.41
28588;BME280;15787;49.662;10.162;2023-06-22T08:41:31;99018.94;;;28.93;65.98
28588;BME280;15787;49.662;10.162;2023-06-22T08:44:04;99020.38;;;28.86;68.35
28588;BME280;15787;49.662;10.162;2023-06-22T08:46:37;99027.13;;;28.89;65.72
28588;BME280;15787;49.662;10.162;2023-06-22T08:49:12;99011.09;;;29.14;66.26
28588;BME280;15787;49.662;10.162;2023-06-22T08:51:45;99027.38;;;29.94;65.97
28588;BME280;15787;49.662;10.162;2023-06-22T08:54:20;99011.75;;;29.82;64.75
28588;BME280;15787;49.662;10.162;2023-06-22T08:56:55;99019.97;;;30.06;65.11
28588;BME280;15787;49.662;10.162;2023-06-22T08:59:27;99018.16;;;30.59;65.20
28588;BME280;15787;49.662;10.162;2023-06-22T09:02:00;99023.69;;;30.50;64.22
28588;BME280;15787;49.662;10.162;2023-06-22T09:04:33;99027.63;;;30.75;62.44
28588;BME280;15787;49.662;10.162;2023-06-22T09:07:06;99027.41;;;30.65;66.10
28588;BME280;15787;49.662;10.162;2023-06-22T09:09:39;99015.22;;;30.44;61.33
28588;BME280;15787;49.662;10.162;2023-06-22T09:12:13;99010.69;;;30.72;61.24
28588;BME280;15787;49.662;10.162;2023-06-22T09:14:46;99008.56;;;30.64;60.43
28588;BME280;15787;49.662;10.162;2023-06-22T09:17:19;99006.63;;;30.59;60.23
28588;BME280;15787;49.662;10.162;2023-06-22T09:19:52;98994.31;;;30.23;57.80
28588;BME280;15787;49.662;10.162;2023-06-22T09:22:25;99000.66;;;31.08;61.73
28588;BME280;15787;49.662;10.162;2023-06-22T09:25:00;98996.25;;;31.38;57.66
28588;BME280;15787;49.662;10.162;2023-06-22T09:27:39;98999.69;;;31.06;57.08
28588;BME280;15787;49.662;10.162;2023-06-22T09:30:12;99002.44;;;31.72;59.67
28588;BME280;15787;49.662;10.162;2023-06-22T09:32:45;99003.41;;;31.74;58.96
28588;BME280;15787;49.662;10.162;2023-06-22T09:35:18;99000.69;;;31.23;56.36
28588;BME280;15787;49.662;10.162;2023-06-22T09:37:51;98993.97;;;31.44;57.31
28588;BME280;15787;49.662;10.162;2023-06-22T09:40:26;98988.66;;;32.40;60.31
28588;BME280;15787;49.662;10.162;2023-06-22T09:43:02;98994.44;;;32.40;57.66
28588;BME280;15787;49.662;10.162;2023-06-22T09:45:34;98992.47;;;32.50;55.74
28588;BME280;15787;49.662;10.162;2023-06-22T09:48:07;98987.66;;;31.60;55.16
28588;BME280;15787;49.662;10.162;2023-06-22T09:50:41;98983.78;;;31.73;55.76
28588;BME280;15787;49.662;10.162;2023-06-22T09:53:14;98984.16;;;32.55;58.78
28588;BME280;15787;49.662;10.162;2023-06-22T09:55:47;98979.00;;;32.85;56.33
28588;BME280;15787;49.662;10.162;2023-06-22T09:58:21;98970.16;;;33.16;55.38
28588;BME280;15787;49.662;10.162;2023-06-22T10:00:54;98978.28;;;32.30;55.44
28588;BME280;15787;49.662;10.162;2023-06-22T10:03:27;98972.66;;;32.87;55.17
28588;BME280;15787;49.662;10.162;2023-06-22T10:06:00;98973.25;;;33.18;53.77
28588;BME280;15787;49.662;10.162;2023-06-22T10:08:34;98955.22;;;33.51;53.19
28588;BME280;15787;49.662;10.162;2023-06-22T10:11:07;98969.53;;;32.92;52.96
28588;BME280;15787;49.662;10.162;2023-06-22T10:13:41;98951.81;;;33.45;52.49
28588;BME280;15787;49.662;10.162;2023-06-22T10:16:14;98957.13;;;33.32;52.00
28588;BME280;15787;49.662;10.162;2023-06-22T10:18:47;98955.25;;;32.94;50.61
28588;BME280;15787;49.662;10.162;2023-06-22T10:21:20;98956.34;;;33.31;51.00
28588;BME280;15787;49.662;10.162;2023-06-22T10:23:53;98959.53;;;34.09;52.09
28588;BME280;15787;49.662;10.162;2023-06-22T10:26:26;98948.09;;;33.28;51.85
28588;BME280;15787;49.662;10.162;2023-06-22T10:29:02;98942.38;;;34.21;52.69
28588;BME280;15787;49.662;10.162;2023-06-22T10:31:47;98955.56;;;33.06;50.49
28588;BME280;15787;49.662;10.162;2023-06-22T10:34:20;98958.28;;;34.47;53.12
28588;BME280;15787;49.662;10.162;2023-06-22T10:36:53;98963.84;;;34.01;50.13
28588;BME280;15787;49.662;10.162;2023-06-22T10:39:25;98950.91;;;34.19;49.58
28588;BME280;15787;49.662;10.162;2023-06-22T10:41:58;98937.47;;;33.55;51.18
28588;BME280;15787;49.662;10.162;2023-06-22T10:44:33;98924.41;;;34.66;50.58
28588;BME280;15787;49.662;10.162;2023-06-22T10:47:06;98920.97;;;35.50;49.05
28588;BME280;15787;49.662;10.162;2023-06-22T10:49:39;98926.59;;;35.38;50.55
28588;BME280;15787;49.662;10.162;2023-06-22T10:52:12;98920.22;;;34.16;47.85
28588;BME280;15787;49.662;10.162;2023-06-22T10:54:45;98923.84;;;33.82;48.80
28588;BME280;15787;49.662;10.162;2023-06-22T10:57:18;98914.66;;;34.71;49.32
28588;BME280;15787;49.662;10.162;2023-06-22T10:59:52;98915.69;;;34.22;48.98
28588;BME280;15787;49.662;10.162;2023-06-22T11:02:25;98901.59;;;34.36;49.23
28588;BME280;15787;49.662;10.162;2023-06-22T11:05:00;98905.66;;;33.47;50.93
28588;BME280;15787;49.662;10.162;2023-06-22T11:07:33;98904.53;;;32.93;51.37
28588;BME280;15787;49.662;10.162;2023-06-22T11:10:07;98908.47;;;32.48;50.81
28588;BME280;15787;49.662;10.162;2023-06-22T11:12:40;98904.56;;;33.18;51.58
28588;BME280;15787;49.662;10.162;2023-06-22T11:15:15;98899.66;;;33.70;51.36
28588;BME280;15787;49.662;10.162;2023-06-22T11:17:48;98893.28;;;33.89;51.65
28588;BME280;15787;49.662;10.162;2023-06-22T11:20:21;98882.72;;;33.84;50.25
28588;BME280;15787;49.662;10.162;2023-06-22T11:22:54;98884.09;;;34.44;49.54
28588;BME280;15787;49.662;10.162;2023-06-22T11:25:27;98892.03;;;34.60;51.56
28588;BME280;15787;49.662;10.162;2023-06-22T11:28:01;98896.78;;;34.21;49.77
28588;BME280;15787;49.662;10.162;2023-06-22T11:30:36;98894.03;;;34.94;49.29
28588;BME280;15787;49.662;10.162;2023-06-22T11:33:09;98882.41;;;34.41;50.13
28588;BME280;15787;49.662;10.162;2023-06-22T11:35:42;98867.72;;;33.78;50.38
28588;BME280;15787;49.662;10.162;2023-06-22T11:38:15;98864.16;;;34.48;50.93
28588;BME280;15787;49.662;10.162;2023-06-22T11:40:48;98847.00;;;34.59;50.34
28588;BME280;15787;49.662;10.162;2023-06-22T11:43:21;98849.28;;;34.00;50.01
28588;BME280;15787;49.662;10.162;2023-06-22T11:45:55;98835.78;;;33.09;51.10
28588;BME280;15787;49.662;10.162;2023-06-22T11:48:29;98835.34;;;34.06;51.08
28588;BME280;15787;49.662;10.162;2023-06-22T11:51:02;98826.16;;;33.83;50.04
28588;BME280;15787;49.662;10.162;2023-06-22T11:53:35;98828.91;;;34.51;51.86
28588;BME280;15787;49.662;10.162;2023-06-22T11:56:08;98813.94;;;34.18;50.68
28588;BME280;15787;49.662;10.162;2023-06-22T11:58:41;98820.25;;;34.24;52.25
28588;BME280;15787;49.662;10.162;2023-06-22T12:01:16;98812.03;;;34.30;52.22
28588;BME280;15787;49.662;10.162;2023-06-22T12:03:49;98807.25;;;33.64;50.19
28588;BME280;15787;49.662;10.162;2023-06-22T12:06:22;98802.88;;;33.39;51.05
28588;BME280;15787;49.662;10.162;2023-06-22T12:08:55;98803.47;;;33.20;51.37
28588;BME280;15787;49.662;10.162;2023-06-22T12:11:28;98807.34;;;33.57;51.59
28588;BME280;15787;49.662;10.162;2023-06-22T12:14:01;98798.38;;;33.28;51.20
28588;BME280;15787;49.662;10.162;2023-06-22T12:16:36;98803.94;;;33.68;52.00
28588;BME280;15787;49.662;10.162;2023-06-22T12:19:09;98803.44;;;34.23;51.61
28588;BME280;15787;49.662;10.162;2023-06-22T12:21:42;98795.47;;;33.80;53.00
28588;BME280;15787;49.662;10.162;2023-06-22T12:24:17;98790.81;;;33.84;51.47
28588;BME280;15787;49.662;10.162;2023-06-22T12:26:50;98793.75;;;34.11;53.25
28588;BME280;15787;49.662;10.162;2023-06-22T12:29:26;98785.25;;;33.96;53.38
28588;BME280;15787;49.662;10.162;2023-06-22T12:32:05;98773.75;;;33.88;51.34
28588;BME280;15787;49.662;10.162;2023-06-22T12:34:38;98776.09;;;33.38;51.29
28588;BME280;15787;49.662;10.162;2023-06-22T12:37:11;98773.69;;;33.44;52.81
28588;BME280;15787;49.662;10.162;2023-06-22T12:39:44;98766.66;;;33.55;53.84
28588;BME280;15787;49.662;10.162;2023-06-22T12:42:16;98764.00;;;33.66;52.28
28588;BME280;15787;49.662;10.162;2023-06-22T12:44:49;98771.38;;;33.94;51.60
28588;BME280;15787;49.662;10.162;2023-06-22T12:47:27;98768.00;;;34.15;53.06
28588;BME280;15787;49.662;10.162;2023-06-22T12:50:00;98768.44;;;34.11;53.03
28588;BME280;15787;49.662;10.162;2023-06-22T12:52:33;98757.31;;;34.44;51.83
28588;BME280;15787;49.662;10.162;2023-06-22T12:55:06;98758.44;;;34.05;51.75
28588;BME280;15787;49.662;10.162;2023-06-22T12:57:40;98765.69;;;33.69;52.79
28588;BME280;15787;49.662;10.162;2023-06-22T13:00:13;98760.56;;;34.21;52.63
28588;BME280;15787;49.662;10.162;2023-06-22T13:02:47;98768.38;;;33.85;52.38
28588;BME280;15787;49.662;10.162;2023-06-22T13:05:20;98761.75;;;33.92;52.75
28588;BME280;15787;49.662;10.162;2023-06-22T13:07:53;98767.44;;;33.99;52.91
28588;BME280;15787;49.662;10.162;2023-06-22T13:10:26;98775.53;;;34.27;52.64
28588;BME280;15787;49.662;10.162;2023-06-22T13:12:59;98767.81;;;33.69;49.68
28588;BME280;15787;49.662;10.162;2023-06-22T13:15:33;98778.28;;;33.82;51.37
28588;BME280;15787;49.662;10.162;2023-06-22T13:18:07;98773.16;;;34.07;51.93
28588;BME280;15787;49.662;10.162;2023-06-22T13:20:40;98770.84;;;34.59;49.40